CPX441 Details

Departure: Salt Lake City International Airport (KSLC)
Arrival: Chicago/Rockford International Airport (KRFD)
Route: RUGGD1 OCS KURSE Q122 FOD BHAWK RFD


Current Weather Information
KSLC 212154Z 29011KT 9SM -RA BKN019 OVC027 07/04 A2965 RMK AO2 SLP024 P0010 T00670044 VISNO NW RNWY
KRFD 212154Z 08020G32KT 10SM OVC060 13/04 A2995 RMK AO2 PK WND 07032/2150 PRESFR SLP145 T01280044